Time;durP1;ratioP1;P1;durP2;ratioP2;P2;SDS_P1;SDS_P2;PMS_P1;PMS_P2;Temp;Humidity;BMP_temperature;BMP_pressure;BME280_temperature;BME280_humidity;BME280_pressure;Samples;Min_cycle;Max_cycle;Signal;HPM_P1;HPM_P2
2022/01/11 00:00:21;;;;;;;12.93;11.23;;;;;;;;;;5036504;28;20049;-83
2022/01/11 00:02:51;;;;;;;12.82;9.70;;;;;;;;;;5020554;28;20135;-83
2022/01/11 00:05:48;;;;;;;14.73;9.63;;;;;;;;;;5053816;28;20120;-83
2022/01/11 00:08:10;;;;;;;15.35;11.75;;;;;;;;;;5039557;28;20045;-83
2022/01/11 00:10:52;;;;;;;13.52;10.68;;;;;;;;;;5037087;28;20055;-83
2022/01/11 00:13:21;;;;;;;13.77;12.00;;;;;;;;;;5039199;28;20045;-83
2022/01/11 00:15:48;;;;;;;18.13;11.88;;;;;;;;;;5035048;28;20429;-83
2022/01/11 00:18:16;;;;;;;23.88;13.90;;;;;;;;;;5041668;28;20048;-84
2022/01/11 00:20:43;;;;;;;17.80;13.15;;;;;;;;;;5074002;28;20036;-84
2022/01/11 00:25:40;;;;;;;14.75;13.20;;;;;;;;;;5061308;28;20056;-83
2022/01/11 00:28:07;;;;;;;12.63;10.00;;;;;;;;;;5036210;28;20051;-83
2022/01/11 00:30:41;;;;;;;12.98;10.50;;;;;;;;;;5020047;28;20052;-83
2022/01/11 00:33:14;;;;;;;14.52;10.07;;;;;;;;;;5035514;28;20060;-83
2022/01/11 00:35:44;;;;;;;14.38;11.10;;;;;;;;;;5020093;28;20041;-83
2022/01/11 00:38:20;;;;;;;14.05;11.20;;;;;;;;;;5019961;28;20053;-83
2022/01/11 00:40:49;;;;;;;11.15;9.30;;;;;;;;;;5035904;28;20048;-83
2022/01/11 00:43:18;;;;;;;12.18;10.18;;;;;;;;;;5019652;28;20157;-83
2022/01/11 00:45:45;;;;;;;14.15;9.65;;;;;;;;;;5019379;28;20045;-83
2022/01/11 00:48:13;;;;;;;12.90;10.05;;;;;;;;;;5054275;28;20077;-82
2022/01/11 00:50:40;;;;;;;16.85;10.48;;;;;;;;;;5055867;28;20052;-82
2022/01/11 00:53:08;;;;;;;11.65;9.07;;;;;;;;;;5055480;28;20052;-82
2022/01/11 00:55:36;;;;;;;12.75;9.88;;;;;;;;;;5053662;28;20055;-82
2022/01/11 00:58:03;;;;;;;11.50;10.02;;;;;;;;;;5048249;28;20041;-83
2022/01/11 01:00:32;;;;;;;11.73;10.00;;;;;;;;;;5080050;28;20063;-83
2022/01/11 01:02:59;;;;;;;12.10;10.80;;;;;;;;;;5036610;28;20482;-82
2022/01/11 01:05:27;;;;;;;15.20;11.68;;;;;;;;;;5060469;28;20049;-83
2022/01/11 01:07:55;;;;;;;12.70;11.30;;;;;;;;;;5054022;28;20076;-83
2022/01/11 01:10:29;;;;;;;14.07;11.60;;;;;;;;;;5036589;28;20041;-83
2022/01/11 01:12:58;;;;;;;17.08;10.43;;;;;;;;;;5031568;28;20048;-83
2022/01/11 01:15:26;;;;;;;15.30;11.38;;;;;;;;;;5055791;28;20086;-82
2022/01/11 01:17:58;;;;;;;14.18;11.55;;;;;;;;;;5040025;28;20044;-83
2022/01/11 01:20:25;;;;;;;13.27;10.63;;;;;;;;;;5038924;28;20055;-83
2022/01/11 01:22:52;;;;;;;15.57;11.18;;;;;;;;;;5072121;28;20127;-83
2022/01/11 01:25:21;;;;;;;20.70;13.30;;;;;;;;;;5039358;28;20052;-84
2022/01/11 01:27:48;;;;;;;15.15;11.30;;;;;;;;;;5072002;28;20123;-83
2022/01/11 01:30:16;;;;;;;13.00;10.63;;;;;;;;;;5055408;28;20496;-82
2022/01/11 01:32:43;;;;;;;14.63;11.68;;;;;;;;;;5055569;28;20055;-82
2022/01/11 01:35:12;;;;;;;17.05;12.07;;;;;;;;;;5025881;28;20084;-82
2022/01/11 01:37:39;;;;;;;14.73;12.38;;;;;;;;;;5049388;28;20040;-82
2022/01/11 01:40:07;;;;;;;12.80;11.40;;;;;;;;;;5036335;28;20059;-83
2022/01/11 01:42:35;;;;;;;15.23;11.27;;;;;;;;;;5035859;28;20084;-84
2022/01/11 01:45:03;;;;;;;13.32;11.02;;;;;;;;;;5033259;28;20139;-81
2022/01/11 01:47:31;;;;;;;14.30;10.48;;;;;;;;;;5064771;28;20080;-82
2022/01/11 01:49:58;;;;;;;13.40;10.88;;;;;;;;;;5053151;28;20128;-83
2022/01/11 01:52:26;;;;;;;10.43;8.20;;;;;;;;;;5034853;28;20123;-82
2022/01/11 01:54:53;;;;;;;11.70;8.85;;;;;;;;;;5051281;28;20139;-83
2022/01/11 01:57:20;;;;;;;9.40;7.93;;;;;;;;;;5057228;28;20055;-82
2022/01/11 01:59:47;;;;;;;13.50;9.55;;;;;;;;;;5075786;28;20056;-82
2022/01/11 02:02:14;;;;;;;9.82;8.02;;;;;;;;;;5059147;28;20102;-82
2022/01/11 02:04:41;;;;;;;10.98;8.48;;;;;;;;;;5021367;28;20080;-83
2022/01/11 02:07:09;;;;;;;8.65;7.35;;;;;;;;;;5045881;28;20036;-82
2022/01/11 02:09:36;;;;;;;11.07;8.23;;;;;;;;;;5022280;28;20052;-82
2022/01/11 02:12:03;;;;;;;12.35;8.00;;;;;;;;;;5038888;28;20049;-83
2022/01/11 02:14:30;;;;;;;9.98;8.63;;;;;;;;;;5071803;28;20501;-82
2022/01/11 02:17:00;;;;;;;9.32;8.02;;;;;;;;;;5054793;28;20052;-82
2022/01/11 02:19:28;;;;;;;10.68;8.13;;;;;;;;;;5055164;28;20041;-83
2022/01/11 02:21:55;;;;;;;9.20;7.93;;;;;;;;;;5044694;28;20060;-83
2022/01/11 02:24:24;;;;;;;10.23;8.40;;;;;;;;;;5019949;28;20045;-84
2022/01/11 02:26:51;;;;;;;8.55;7.68;;;;;;;;;;5002674;28;20049;-83
2022/01/11 02:29:18;;;;;;;10.77;9.68;;;;;;;;;;5002502;28;20490;-83
2022/01/11 02:31:46;;;;;;;10.40;7.28;;;;;;;;;;5052770;28;20610;-83
2022/01/11 02:34:13;;;;;;;10.68;8.07;;;;;;;;;;5044131;28;20044;-81
2022/01/11 02:36:40;;;;;;;11.45;8.27;;;;;;;;;;5046916;28;20131;-83
2022/01/11 02:39:24;;;;;;;9.88;7.38;;;;;;;;;;5057734;28;20052;-83
2022/01/11 02:41:57;;;;;;;9.82;8.20;;;;;;;;;;5075209;28;20055;-83
2022/01/11 02:44:44;;;;;;;11.60;8.82;;;;;;;;;;5075036;28;20505;-83
2022/01/11 02:47:19;;;;;;;12.63;8.95;;;;;;;;;;5065482;28;20137;-83
2022/01/11 02:49:48;;;;;;;9.32;8.43;;;;;;;;;;5056254;28;20122;-84
2022/01/11 02:52:20;;;;;;;11.18;9.55;;;;;;;;;;5042278;28;20439;-83
2022/01/11 02:54:53;;;;;;;9.93;8.85;;;;;;;;;;5073326;28;20463;-83
2022/01/11 02:57:20;;;;;;;11.98;9.85;;;;;;;;;;5041158;28;20078;-83
2022/01/11 02:59:53;;;;;;;11.35;8.95;;;;;;;;;;5042127;28;20078;-83
2022/01/11 03:02:21;;;;;;;11.60;9.25;;;;;;;;;;5074983;28;20060;-83
2022/01/11 03:04:50;;;;;;;11.75;9.30;;;;;;;;;;5091694;28;20064;-83
2022/01/11 03:07:21;;;;;;;10.43;8.05;;;;;;;;;;5057096;28;20040;-83
2022/01/11 03:10:01;;;;;;;9.63;8.63;;;;;;;;;;5074183;28;20158;-82
2022/01/11 03:12:35;;;;;;;9.77;7.68;;;;;;;;;;5043621;28;20113;-83
2022/01/11 03:15:03;;;;;;;11.50;8.60;;;;;;;;;;5057935;28;20490;-83
2022/01/11 03:17:30;;;;;;;8.90;8.00;;;;;;;;;;5073312;28;20123;-83
2022/01/11 03:19:59;;;;;;;9.50;8.50;;;;;;;;;;5040993;28;20052;-82
2022/01/11 03:22:26;;;;;;;10.70;9.13;;;;;;;;;;5040958;28;20495;-82
2022/01/11 03:24:52;;;;;;;9.30;8.07;;;;;;;;;;5057551;28;20045;-82
2022/01/11 03:27:21;;;;;;;11.35;8.35;;;;;;;;;;5040512;28;20130;-82
2022/01/11 03:29:48;;;;;;;10.95;8.98;;;;;;;;;;5040611;28;20044;-82
2022/01/11 03:32:19;;;;;;;8.65;7.75;;;;;;;;;;5024770;28;20057;-83
2022/01/11 03:35:09;;;;;;;9.70;8.77;;;;;;;;;;5036824;28;20049;-82
2022/01/11 03:37:37;;;;;;;8.68;6.90;;;;;;;;;;5037906;28;20444;-82
2022/01/11 03:40:08;;;;;;;9.32;8.07;;;;;;;;;;5030382;28;20083;-83
2022/01/11 03:42:35;;;;;;;8.90;7.63;;;;;;;;;;5073716;28;20086;-83
2022/01/11 03:45:05;;;;;;;7.93;7.13;;;;;;;;;;5037325;28;20037;-82
2022/01/11 03:47:33;;;;;;;8.90;7.55;;;;;;;;;;5054030;28;20489;-83
2022/01/11 03:50:00;;;;;;;9.57;7.25;;;;;;;;;;5036936;28;20444;-83
2022/01/11 03:52:28;;;;;;;8.27;7.47;;;;;;;;;;5004604;28;20084;-82
2022/01/11 03:57:32;;;;;;;9.80;8.20;;;;;;;;;;5055831;28;20037;-83
2022/01/11 04:00:00;;;;;;;9.38;8.02;;;;;;;;;;5073373;28;20045;-83
2022/01/11 04:02:28;;;;;;;11.80;8.43;;;;;;;;;;5089459;28;20048;-82
2022/01/11 04:04:55;;;;;;;9.50;8.00;;;;;;;;;;5056822;28;20063;-83
2022/01/11 04:07:26;;;;;;;10.63;8.25;;;;;;;;;;5039928;28;20045;-82
2022/01/11 04:09:55;;;;;;;9.05;7.75;;;;;;;;;;5039993;28;20040;-83
2022/01/11 04:12:23;;;;;;;9.05;7.90;;;;;;;;;;5071013;28;20086;-82
2022/01/11 04:14:51;;;;;;;11.43;7.90;;;;;;;;;;5056401;28;20052;-83
2022/01/11 04:17:19;;;;;;;10.40;8.63;;;;;;;;;;5040155;28;20045;-83
2022/01/11 04:19:46;;;;;;;10.63;7.82;;;;;;;;;;5059629;28;20906;-82
2022/01/11 04:22:13;;;;;;;8.20;6.93;;;;;;;;;;5036123;28;20049;-83
2022/01/11 04:24:40;;;;;;;8.45;7.05;;;;;;;;;;5036181;28;20049;-83
2022/01/11 04:27:07;;;;;;;9.02;7.85;;;;;;;;;;5057332;28;20513;-83
2022/01/11 04:29:36;;;;;;;10.73;7.40;;;;;;;;;;5036903;28;20147;-84
2022/01/11 04:32:04;;;;;;;8.30;7.43;;;;;;;;;;5039199;28;20528;-84
2022/01/11 04:34:31;;;;;;;9.57;7.38;;;;;;;;;;5055655;28;20083;-84
2022/01/11 04:36:58;;;;;;;10.43;7.70;;;;;;;;;;5035753;28;20053;-83
2022/01/11 04:39:26;;;;;;;9.73;8.05;;;;;;;;;;5044859;28;20078;-83
2022/01/11 04:41:54;;;;;;;7.82;7.03;;;;;;;;;;5047452;28;20120;-83
2022/01/11 04:44:24;;;;;;;9.40;7.38;;;;;;;;;;5040527;28;20052;-82
2022/01/11 04:46:52;;;;;;;9.13;8.23;;;;;;;;;;5020858;28;20404;-83
2022/01/11 04:49:19;;;;;;;9.50;8.38;;;;;;;;;;5029520;28;20052;-83
2022/01/11 04:51:46;;;;;;;9.45;8.38;;;;;;;;;;5056334;28;20228;-83
2022/01/11 04:54:13;;;;;;;10.50;7.43;;;;;;;;;;5072943;28;20037;-83
2022/01/11 04:56:41;;;;;;;9.60;8.43;;;;;;;;;;5036294;28;20055;-85
2022/01/11 04:59:10;;;;;;;10.45;8.02;;;;;;;;;;5030381;28;20055;-84
2022/01/11 05:01:40;;;;;;;11.23;7.70;;;;;;;;;;5055949;28;20508;-83
2022/01/11 05:04:07;;;;;;;7.95;7.15;;;;;;;;;;5055644;28;20443;-82
2022/01/11 05:06:35;;;;;;;10.10;7.75;;;;;;;;;;5039518;28;20076;-84
2022/01/11 05:09:03;;;;;;;10.32;7.05;;;;;;;;;;5072923;28;20055;-84
2022/01/11 05:11:30;;;;;;;9.88;7.22;;;;;;;;;;5056403;28;20496;-83
2022/01/11 05:13:58;;;;;;;10.18;6.97;;;;;;;;;;5036381;28;20059;-83
2022/01/11 05:16:44;;;;;;;9.88;7.55;;;;;;;;;;5028988;28;20049;-84
2022/01/11 05:19:12;;;;;;;8.20;7.18;;;;;;;;;;5039455;28;20048;-83
2022/01/11 05:21:43;;;;;;;7.30;6.60;;;;;;;;;;5070859;28;20051;-83
2022/01/11 05:24:11;;;;;;;10.95;9.02;;;;;;;;;;5054103;28;20044;-82
2022/01/11 05:26:38;;;;;;;10.18;7.70;;;;;;;;;;5028030;28;20049;-82
2022/01/11 05:29:05;;;;;;;8.82;7.75;;;;;;;;;;5072231;28;20051;-82
2022/01/11 05:31:35;;;;;;;9.07;7.18;;;;;;;;;;5055374;28;20111;-82
2022/01/11 05:34:03;;;;;;;9.85;8.80;;;;;;;;;;5054523;28;20045;-84
2022/01/11 05:36:30;;;;;;;8.65;7.20;;;;;;;;;;5071165;28;20115;-82
2022/01/11 05:38:57;;;;;;;9.77;7.72;;;;;;;;;;5038268;28;20127;-82
2022/01/11 05:41:24;;;;;;;12.75;9.18;;;;;;;;;;5038315;28;20061;-82
2022/01/11 05:43:52;;;;;;;8.68;7.78;;;;;;;;;;5054611;28;20040;-83
2022/01/11 05:46:19;;;;;;;8.60;7.70;;;;;;;;;;5038280;28;20427;-86
2022/01/11 05:48:46;;;;;;;11.43;8.68;;;;;;;;;;5055151;28;20076;-80
2022/01/11 05:51:15;;;;;;;10.73;8.07;;;;;;;;;;5037976;28;20052;-80
2022/01/11 05:53:43;;;;;;;12.40;8.30;;;;;;;;;;5055279;28;20123;-83
2022/01/11 05:56:10;;;;;;;13.75;7.88;;;;;;;;;;5053598;28;20075;-81
2022/01/11 05:58:37;;;;;;;12.45;8.77;;;;;;;;;;5052823;28;20037;-80
2022/01/11 06:01:07;;;;;;;9.45;8.10;;;;;;;;;;5056601;28;20040;-80
2022/01/11 06:03:34;;;;;;;8.18;7.28;;;;;;;;;;5041823;28;20083;-84
2022/01/11 06:06:01;;;;;;;8.45;7.18;;;;;;;;;;5059388;28;20485;-79
2022/01/11 06:08:32;;;;;;;10.45;8.32;;;;;;;;;;5042393;28;20055;-81
2022/01/11 06:11:00;;;;;;;10.38;7.80;;;;;;;;;;5059481;28;20400;-83
2022/01/11 06:13:30;;;;;;;8.52;7.25;;;;;;;;;;5042939;28;20469;-80
2022/01/11 06:15:57;;;;;;;18.52;8.63;;;;;;;;;;5019269;28;20053;-77
2022/01/11 06:18:25;;;;;;;10.30;9.20;;;;;;;;;;5051707;28;20054;-77
2022/01/11 06:21:04;;;;;;;10.05;8.80;;;;;;;;;;5056953;28;20052;-75
2022/01/11 06:23:31;;;;;;;9.68;8.77;;;;;;;;;;5055597;28;20048;-74
2022/01/11 06:25:58;;;;;;;12.68;9.50;;;;;;;;;;5055386;28;20446;-74
2022/01/11 06:28:25;;;;;;;13.05;9.65;;;;;;;;;;5056414;28;20033;-73
2022/01/11 06:30:53;;;;;;;9.55;8.63;;;;;;;;;;5071299;28;20059;-74
2022/01/11 06:33:20;;;;;;;11.60;10.40;;;;;;;;;;5040356;28;20068;-76
2022/01/11 06:35:47;;;;;;;11.13;8.98;;;;;;;;;;5055458;28;20143;-75
2022/01/11 06:38:15;;;;;;;11.98;9.95;;;;;;;;;;5065071;28;20097;-75
2022/01/11 06:40:43;;;;;;;10.55;8.95;;;;;;;;;;5033169;28;20488;-75
2022/01/11 06:43:11;;;;;;;11.38;8.07;;;;;;;;;;5058785;28;20048;-75
2022/01/11 06:45:39;;;;;;;11.73;8.35;;;;;;;;;;5036352;28;20558;-74
2022/01/11 06:48:10;;;;;;;9.95;8.77;;;;;;;;;;5072767;28;20051;-76
2022/01/11 06:50:37;;;;;;;9.75;8.68;;;;;;;;;;5063604;28;20102;-76
2022/01/11 06:53:04;;;;;;;10.70;9.55;;;;;;;;;;5057374;28;20052;-76
2022/01/11 06:55:35;;;;;;;13.88;8.98;;;;;;;;;;5041397;28;20107;-75
2022/01/11 06:58:05;;;;;;;13.52;9.68;;;;;;;;;;5040560;28;20063;-77
2022/01/11 07:00:32;;;;;;;12.50;8.77;;;;;;;;;;5069154;28;20043;-75
2022/01/11 07:03:05;;;;;;;9.35;8.32;;;;;;;;;;5066738;28;20133;-80
2022/01/11 07:05:43;;;;;;;12.70;10.20;;;;;;;;;;5060663;28;20377;-79
2022/01/11 07:08:11;;;;;;;9.30;8.23;;;;;;;;;;5078832;28;20041;-79
2022/01/11 07:10:38;;;;;;;9.90;8.60;;;;;;;;;;5069498;28;20064;-86
2022/01/11 07:13:07;;;;;;;12.27;9.02;;;;;;;;;;5043900;28;20119;-81
2022/01/11 07:15:34;;;;;;;11.50;8.70;;;;;;;;;;5073463;28;20049;-81
2022/01/11 07:18:09;;;;;;;11.05;9.73;;;;;;;;;;5080147;28;20049;-82
2022/01/11 07:20:38;;;;;;;14.50;11.13;;;;;;;;;;5055539;28;20059;-78
2022/01/11 07:23:07;;;;;;;10.32;9.30;;;;;;;;;;5051056;28;20656;-83
2022/01/11 07:25:35;;;;;;;10.82;8.70;;;;;;;;;;5048277;28;20076;-77
2022/01/11 07:28:05;;;;;;;12.85;9.77;;;;;;;;;;5082600;28;20048;-81
2022/01/11 07:30:33;;;;;;;10.85;9.27;;;;;;;;;;5029575;28;20584;-77
2022/01/11 07:33:00;;;;;;;10.63;9.52;;;;;;;;;;5071236;28;20766;-76
2022/01/11 07:35:29;;;;;;;11.35;10.07;;;;;;;;;;5048889;28;20409;-79
2022/01/11 07:37:59;;;;;;;11.18;9.05;;;;;;;;;;5049280;28;20040;-80
2022/01/11 07:40:27;;;;;;;13.10;8.93;;;;;;;;;;5035424;28;20052;-78
2022/01/11 07:43:01;;;;;;;12.20;9.70;;;;;;;;;;5043816;28;20056;-81
2022/01/11 07:45:48;;;;;;;10.35;9.10;;;;;;;;;;5035429;28;20068;-80
2022/01/11 07:48:18;;;;;;;13.43;9.23;;;;;;;;;;5042532;28;20106;-82
2022/01/11 07:50:53;;;;;;;13.48;9.27;;;;;;;;;;5064728;28;20413;-77
2022/01/11 07:53:20;;;;;;;12.75;9.65;;;;;;;;;;5064120;28;20405;-78
2022/01/11 07:55:53;;;;;;;10.38;9.27;;;;;;;;;;5071125;28;20079;-81
2022/01/11 07:58:21;;;;;;;10.63;9.02;;;;;;;;;;5050403;28;20468;-78
2022/01/11 08:00:50;;;;;;;14.60;10.85;;;;;;;;;;5083361;28;20382;-80
2022/01/11 08:03:23;;;;;;;11.17;9.87;;;;;;;;;;5034837;28;20421;-83
2022/01/11 08:06:03;;;;;;;13.70;10.68;;;;;;;;;;5039044;28;20056;-78
2022/01/11 08:08:31;;;;;;;13.13;10.20;;;;;;;;;;5056577;28;20045;-82
2022/01/11 08:11:00;;;;;;;14.10;10.75;;;;;;;;;;5072851;28;20071;-84
2022/01/11 08:13:29;;;;;;;13.93;12.45;;;;;;;;;;5056379;28;20075;-85
2022/01/11 08:15:56;;;;;;;13.95;12.35;;;;;;;;;;5056701;28;20453;-77
2022/01/11 08:18:23;;;;;;;11.68;10.32;;;;;;;;;;5040036;28;20132;-77
2022/01/11 08:20:50;;;;;;;15.77;12.52;;;;;;;;;;5072445;28;20079;-77
2022/01/11 08:23:18;;;;;;;12.52;9.45;;;;;;;;;;5040221;28;20509;-76
2022/01/11 08:25:45;;;;;;;12.43;11.13;;;;;;;;;;5039402;28;20041;-79
2022/01/11 08:28:13;;;;;;;18.70;13.98;;;;;;;;;;5039606;28;20052;-77
2022/01/11 08:30:46;;;;;;;15.85;14.05;;;;;;;;;;5088796;28;20063;-79
2022/01/11 08:33:15;;;;;;;15.82;12.82;;;;;;;;;;5072761;28;20049;-77
2022/01/11 08:35:42;;;;;;;14.85;11.98;;;;;;;;;;5054806;28;20223;-78
2022/01/11 08:38:13;;;;;;;13.00;11.50;;;;;;;;;;5037039;28;20205;-79
2022/01/11 08:40:43;;;;;;;12.55;10.45;;;;;;;;;;5036914;28;20111;-84
2022/01/11 08:43:13;;;;;;;13.65;11.57;;;;;;;;;;5054617;28;20422;-86
2022/01/11 08:45:41;;;;;;;13.90;12.30;;;;;;;;;;5039107;28;20048;-79
2022/01/11 08:48:12;;;;;;;12.70;10.93;;;;;;;;;;5048689;28;20067;-87
2022/01/11 08:50:47;;;;;;;12.60;10.73;;;;;;;;;;5020949;28;20068;-87
2022/01/11 08:53:14;;;;;;;11.65;10.50;;;;;;;;;;5053034;28;20151;-87
2022/01/11 08:55:41;;;;;;;14.40;12.88;;;;;;;;;;5052669;28;20041;-76
2022/01/11 08:58:08;;;;;;;13.93;11.93;;;;;;;;;;5018815;28;20088;-81
2022/01/11 09:00:36;;;;;;;25.88;17.27;;;;;;;;;;5035539;28;20053;-81
2022/01/11 09:03:08;;;;;;;34.08;19.30;;;;;;;;;;5015178;28;20059;-88
2022/01/11 09:05:42;;;;;;;36.65;21.27;;;;;;;;;;5028218;28;20135;-79
2022/01/11 09:08:12;;;;;;;20.85;15.25;;;;;;;;;;5068632;28;20087;-83
2022/01/11 09:10:40;;;;;;;19.17;14.52;;;;;;;;;;5018869;28;20052;-80
2022/01/11 09:13:07;;;;;;;16.85;12.25;;;;;;;;;;5035204;28;20044;-82
2022/01/11 09:15:34;;;;;;;20.08;15.07;;;;;;;;;;5052323;28;20052;-77
2022/01/11 09:18:04;;;;;;;17.73;14.38;;;;;;;;;;5051583;28;20061;-77
2022/01/11 09:20:33;;;;;;;20.35;14.88;;;;;;;;;;5051768;28;20045;-81
2022/01/11 09:23:00;;;;;;;18.42;13.05;;;;;;;;;;5018526;28;20544;-84
2022/01/11 09:25:31;;;;;;;16.50;13.45;;;;;;;;;;5019022;28;20045;-80
2022/01/11 09:28:03;;;;;;;17.30;12.80;;;;;;;;;;5048466;28;20045;-77
2022/01/11 09:30:31;;;;;;;16.27;11.60;;;;;;;;;;5070547;28;20055;-77
2022/01/11 09:33:00;;;;;;;14.70;12.75;;;;;;;;;;5036444;28;20053;-77
2022/01/11 09:35:29;;;;;;;16.45;13.38;;;;;;;;;;5034403;28;20124;-75
2022/01/11 09:38:14;;;;;;;14.18;11.63;;;;;;;;;;5018310;28;20049;-78
2022/01/11 09:40:43;;;;;;;17.63;11.35;;;;;;;;;;5014642;28;20508;-81
2022/01/11 09:43:12;;;;;;;12.63;10.40;;;;;;;;;;5015010;28;20128;-83
2022/01/11 09:45:44;;;;;;;14.30;10.30;;;;;;;;;;4999075;28;20125;-81
2022/01/11 09:48:12;;;;;;;14.82;12.35;;;;;;;;;;5014646;28;20445;-84
2022/01/11 09:50:42;;;;;;;17.30;12.18;;;;;;;;;;5015200;28;20041;-85
2022/01/11 09:53:11;;;;;;;14.68;10.82;;;;;;;;;;4998980;28;20053;-84
2022/01/11 09:55:44;;;;;;;20.05;11.73;;;;;;;;;;5014038;28;20501;-80
2022/01/11 09:58:12;;;;;;;13.02;11.52;;;;;;;;;;4998425;28;20049;-81
2022/01/11 10:00:52;;;;;;;16.27;12.88;;;;;;;;;;5032238;28;20045;-81
2022/01/11 10:04:14;;;;;;;15.68;11.90;;;;;;;;;;5003801;28;20055;-80
2022/01/11 10:07:07;;;;;;;16.67;11.75;;;;;;;;;;4941870;28;20101;-81
2022/01/11 10:09:46;;;;;;;15.23;11.40;;;;;;;;;;5023012;28;20053;-80
2022/01/11 10:12:14;;;;;;;17.98;11.23;;;;;;;;;;5025572;28;20049;-78
2022/01/11 10:14:46;;;;;;;15.23;12.30;;;;;;;;;;5014448;28;20401;-75
2022/01/11 10:17:20;;;;;;;15.05;11.63;;;;;;;;;;4997982;28;20053;-80
2022/01/11 10:20:05;;;;;;;13.32;11.75;;;;;;;;;;5014097;28;20056;-77
2022/01/11 10:22:48;;;;;;;;;;;;;;;;;;4999516;28;20096;-81
2022/01/11 10:25:16;;;;;;;14.85;11.90;;;;;;;;;;5033225;28;19924;-78
2022/01/11 10:27:44;;;;;;;25.40;14.68;;;;;;;;;;5051510;28;20041;-76
2022/01/11 10:30:15;;;;;;;16.27;12.85;;;;;;;;;;5033370;28;20045;-77
2022/01/11 10:32:49;;;;;;;15.02;12.75;;;;;;;;;;5033294;28;20057;-80
2022/01/11 10:35:32;;;;;;;17.52;14.05;;;;;;;;;;5017966;28;20401;-77
2022/01/11 10:38:30;;;;;;;23.33;15.27;;;;;;;;;;5020382;28;20080;-77
2022/01/11 10:41:08;;;;;;;15.70;13.48;;;;;;;;;;5033357;28;20096;-76
2022/01/11 10:43:43;;;;;;;16.27;12.77;;;;;;;;;;5017251;28;20383;-77
2022/01/11 10:46:19;;;;;;;15.35;12.70;;;;;;;;;;5018323;28;20052;-76
2022/01/11 10:49:09;;;;;;;15.25;11.45;;;;;;;;;;5019766;28;20512;-76
2022/01/11 10:51:36;;;;;;;16.20;12.45;;;;;;;;;;5016947;28;20053;-76
2022/01/11 10:54:09;;;;;;;14.90;12.55;;;;;;;;;;5049378;28;20049;-77
2022/01/11 10:56:40;;;;;;;15.85;12.82;;;;;;;;;;5033576;28;20064;-76
2022/01/11 10:59:10;;;;;;;14.98;12.20;;;;;;;;;;5016948;28;20064;-76
2022/01/11 11:01:48;;;;;;;15.85;12.93;;;;;;;;;;5022112;28;20053;-75
2022/01/11 11:04:45;;;;;;;15.20;12.02;;;;;;;;;;5004771;28;20566;-78
2022/01/11 11:07:32;;;;;;;17.13;13.75;;;;;;;;;;5007566;28;20057;-78
2022/01/11 11:10:06;;;;;;;19.47;12.93;;;;;;;;;;5025460;28;20554;-77
2022/01/11 11:12:33;;;;;;;16.00;13.95;;;;;;;;;;5036568;28;20053;-77
2022/01/11 11:15:05;;;;;;;17.60;13.85;;;;;;;;;;5020441;28;20148;-76
2022/01/11 11:17:40;;;;;;;23.40;13.13;;;;;;;;;;5021341;28;20056;-77
2022/01/11 11:20:27;;;;;;;17.67;13.68;;;;;;;;;;5038977;28;20114;-77
2022/01/11 11:22:54;;;;;;;17.88;14.25;;;;;;;;;;5054050;28;20128;-76
2022/01/11 11:25:21;;;;;;;18.70;14.80;;;;;;;;;;5029711;28;20052;-76
2022/01/11 11:27:48;;;;;;;18.27;12.50;;;;;;;;;;5019802;28;20056;-76
2022/01/11 11:30:15;;;;;;;15.80;11.80;;;;;;;;;;5036556;28;20052;-76
2022/01/11 11:32:44;;;;;;;14.98;12.52;;;;;;;;;;5036050;28;20148;-76
2022/01/11 11:35:12;;;;;;;15.20;12.10;;;;;;;;;;5054048;28;20140;-77
2022/01/11 11:37:40;;;;;;;16.10;13.73;;;;;;;;;;5036519;28;20133;-76
2022/01/11 11:40:11;;;;;;;17.02;13.07;;;;;;;;;;5036230;28;20049;-76
2022/01/11 11:42:39;;;;;;;22.20;13.13;;;;;;;;;;5036354;28;20239;-76
2022/01/11 11:45:34;;;;;;;16.00;13.15;;;;;;;;;;5035669;28;20060;-76
2022/01/11 11:48:05;;;;;;;16.85;13.10;;;;;;;;;;5035841;28;20103;-76
2022/01/11 11:50:33;;;;;;;15.90;13.55;;;;;;;;;;5035415;28;20083;-76
2022/01/11 11:53:00;;;;;;;22.80;13.60;;;;;;;;;;5054048;28;20045;-75
2022/01/11 11:55:33;;;;;;;21.58;13.98;;;;;;;;;;5035783;28;20041;-76
2022/01/11 11:58:06;;;;;;;18.48;12.75;;;;;;;;;;5019231;28;20531;-76
2022/01/11 12:00:35;;;;;;;18.33;13.77;;;;;;;;;;5036002;28;20045;-76
2022/01/11 12:03:19;;;;;;;17.23;14.40;;;;;;;;;;5035413;28;20048;-76
2022/01/11 12:05:47;;;;;;;19.33;14.15;;;;;;;;;;5035892;28;20083;-75
2022/01/11 12:08:31;;;;;;;17.38;13.60;;;;;;;;;;5053187;28;20045;-76
2022/01/11 12:11:10;;;;;;;18.55;13.25;;;;;;;;;;5052087;28;20064;-76
2022/01/11 12:13:42;;;;;;;28.55;13.95;;;;;;;;;;5035510;28;20053;-76
2022/01/11 12:16:25;;;;;;;20.92;14.93;;;;;;;;;;5019348;28;20127;-76
2022/01/11 12:19:38;;;;;;;15.55;12.70;;;;;;;;;;5053103;28;20045;-75
2022/01/11 12:22:07;;;;;;;15.02;13.43;;;;;;;;;;5037806;28;20057;-76
2022/01/11 12:24:38;;;;;;;22.35;15.13;;;;;;;;;;5042789;28;20053;-77
2022/01/11 12:27:09;;;;;;;20.23;13.82;;;;;;;;;;5015455;28;20068;-75
2022/01/11 12:29:37;;;;;;;17.88;13.27;;;;;;;;;;4999916;28;20057;-76
2022/01/11 12:32:07;;;;;;;20.58;14.60;;;;;;;;;;5043577;28;20056;-76
2022/01/11 12:34:46;;;;;;;19.98;14.80;;;;;;;;;;5035551;28;20056;-75
2022/01/11 12:37:33;;;;;;;16.27;13.48;;;;;;;;;;5053081;28;20052;-76
2022/01/11 12:40:26;;;;;;;20.33;13.45;;;;;;;;;;5053049;28;20059;-76
2022/01/11 12:42:57;;;;;;;17.00;13.25;;;;;;;;;;5053148;28;20045;-75
2022/01/11 12:46:18;;;;;;;16.33;11.93;;;;;;;;;;5064347;28;20041;-75
2022/01/11 12:48:53;;;;;;;13.93;10.80;;;;;;;;;;5011313;28;20128;-76
2022/01/11 12:51:49;;;;;;;14.75;11.30;;;;;;;;;;5062205;28;20044;-76
2022/01/11 12:54:24;;;;;;;17.50;13.38;;;;;;;;;;5071261;28;20106;-76
2022/01/11 12:56:54;;;;;;;16.80;13.23;;;;;;;;;;5054902;28;20102;-75
2022/01/11 12:59:26;;;;;;;17.42;12.45;;;;;;;;;;5048133;28;20044;-75
2022/01/11 13:02:01;;;;;;;20.15;13.85;;;;;;;;;;5053002;28;20049;-75
2022/01/11 13:04:40;;;;;;;17.45;12.88;;;;;;;;;;5035289;28;20063;-74
2022/01/11 13:07:22;;;;;;;16.13;14.02;;;;;;;;;;5035296;28;20550;-76
2022/01/11 13:10:06;;;;;;;19.10;14.05;;;;;;;;;;5067825;28;20424;-73
2022/01/11 13:12:52;;;;;;;17.42;13.93;;;;;;;;;;5072395;28;20063;-75
2022/01/11 13:15:37;;;;;;;16.73;13.90;;;;;;;;;;5054949;28;20081;-75
2022/01/11 13:18:10;;;;;;;18.55;12.63;;;;;;;;;;5066924;28;20040;-76
2022/01/11 13:20:59;;;;;;;21.13;13.00;;;;;;;;;;5068177;28;20041;-76
2022/01/11 13:23:35;;;;;;;22.38;12.20;;;;;;;;;;5050114;28;20119;-76
2022/01/11 13:26:11;;;;;;;16.70;11.60;;;;;;;;;;5041068;28;20099;-75
2022/01/11 13:28:46;;;;;;;19.05;13.60;;;;;;;;;;5022147;28;20056;-76
2022/01/11 13:31:17;;;;;;;15.52;12.63;;;;;;;;;;5057648;28;20072;-75
2022/01/11 13:33:50;;;;;;;17.80;11.73;;;;;;;;;;5034203;28;20057;-74
2022/01/11 13:36:30;;;;;;;15.38;12.70;;;;;;;;;;5052385;28;20622;-75
2022/01/11 13:39:00;;;;;;;16.15;12.60;;;;;;;;;;5023387;28;20140;-75
2022/01/11 13:41:32;;;;;;;16.30;12.10;;;;;;;;;;5054146;28;20044;-75
2022/01/11 13:44:07;;;;;;;18.05;11.35;;;;;;;;;;5045130;28;20106;-74
2022/01/11 13:46:42;;;;;;;15.27;11.38;;;;;;;;;;5050735;28;20060;-79
2022/01/11 13:49:25;;;;;;;14.00;12.00;;;;;;;;;;5061091;28;20131;-74
2022/01/11 13:51:55;;;;;;;14.20;10.98;;;;;;;;;;5055350;28;20060;-78
2022/01/11 13:54:29;;;;;;;13.63;10.60;;;;;;;;;;5037056;28;20072;-78
2022/01/11 13:56:58;;;;;;;19.58;12.10;;;;;;;;;;5049223;28;20076;-76
2022/01/11 13:59:29;;;;;;;15.43;11.52;;;;;;;;;;5066097;28;20040;-77
2022/01/11 14:02:12;;;;;;;17.00;11.00;;;;;;;;;;5065440;28;20044;-76
2022/01/11 14:04:41;;;;;;;56.45;39.53;;;;;;;;;;5051331;28;20045;-76
2022/01/11 14:07:14;;;;;;;19.83;15.07;;;;;;;;;;5066713;28;20127;-76
2022/01/11 14:09:49;;;;;;;15.40;10.55;;;;;;;;;;5046364;28;20166;-76
2022/01/11 14:12:30;;;;;;;19.08;10.88;;;;;;;;;;5052697;28;20055;-75
2022/01/11 14:15:20;;;;;;;13.20;10.60;;;;;;;;;;5051675;28;20049;-75
2022/01/11 14:17:48;;;;;;;14.18;9.98;;;;;;;;;;5065081;28;20085;-75
2022/01/11 14:20:32;;;;;;;16.88;12.77;;;;;;;;;;5065685;28;20086;-75
2022/01/11 14:23:02;;;;;;;19.00;13.35;;;;;;;;;;5051847;28;20040;-74
2022/01/11 14:25:35;;;;;;;15.52;13.35;;;;;;;;;;5065347;28;20510;-74
2022/01/11 14:28:11;;;;;;;17.73;12.15;;;;;;;;;;5052091;28;20049;-75
2022/01/11 14:30:40;;;;;;;18.35;12.10;;;;;;;;;;5035647;28;20044;-75
2022/01/11 14:33:23;;;;;;;13.90;11.63;;;;;;;;;;5069078;28;20513;-75
2022/01/11 14:35:58;;;;;;;16.33;12.35;;;;;;;;;;5056341;28;20048;-75
2022/01/11 14:38:33;;;;;;;;;;;;;;;;;;5075599;28;20091;-75
2022/01/11 14:41:01;;;;;;;14.43;11.90;;;;;;;;;;5074617;28;19936;-75
2022/01/11 14:43:28;;;;;;;13.35;11.65;;;;;;;;;;5074773;28;20041;-75
2022/01/11 14:45:58;;;;;;;15.52;12.70;;;;;;;;;;5057488;28;20052;-75
2022/01/11 14:48:36;;;;;;;19.33;12.80;;;;;;;;;;5073344;28;20044;-75
2022/01/11 14:51:14;;;;;;;16.13;11.65;;;;;;;;;;5057457;28;20044;-75
2022/01/11 14:53:48;;;;;;;17.20;11.93;;;;;;;;;;5074163;28;20048;-75
2022/01/11 14:56:33;;;;;;;22.48;13.23;;;;;;;;;;5070527;28;20522;-74